Time;durP1;ratioP1;P1;durP2;ratioP2;P2;SDS_P1;SDS_P2;PMS_P1;PMS_P2;Temp;Humidity;BMP_temperature;BMP_pressure;BME280_temperature;BME280_humidity;BME280_pressure;Samples;Min_cycle;Max_cycle;Signal;HPM_P1;HPM_P2
2023/10/17 00:00:31;;;;;;;8.50;5.20;;;22.50;58.50;;;;;;349405;28;2009;-58
2023/10/17 00:00:45;;;;;;;7.32;4.90;;;22.50;58.50;;;;;;349624;28;1888;-59
2023/10/17 00:00:56;;;;;;;7.55;5.03;;;22.50;58.50;;;;;;349461;28;1635;-58
2023/10/17 00:01:10;;;;;;;8.03;5.27;;;22.50;58.50;;;;;;349623;28;1055;-59
2023/10/17 00:01:21;;;;;;;9.60;5.55;;;22.50;58.50;;;;;;349515;28;1122;-57
2023/10/17 00:01:35;;;;;;;9.68;5.78;;;22.40;58.60;;;;;;349626;28;1807;-59
2023/10/17 00:01:54;;;;;;;9.40;6.05;;;22.40;58.70;;;;;;349590;28;960;-58
2023/10/17 00:02:12;;;;;;;9.65;6.22;;;22.50;58.80;;;;;;349525;28;1564;-58
2023/10/17 00:02:26;;;;;;;9.13;5.97;;;22.40;58.90;;;;;;349528;28;1477;-57
2023/10/17 00:02:40;;;;;;;9.05;5.60;;;22.40;59.00;;;;;;349652;28;876;-59
2023/10/17 00:02:51;;;;;;;8.23;5.18;;;22.40;59.00;;;;;;349496;28;1119;-59
2023/10/17 00:03:04;;;;;;;8.50;5.30;;;22.40;59.00;;;;;;349576;28;1090;-59
2023/10/17 00:03:14;;;;;;;9.10;5.45;;;22.40;59.10;;;;;;349566;28;1020;-59
2023/10/17 00:03:25;;;;;;;9.47;5.47;;;22.40;59.10;;;;;;349703;28;880;-58
2023/10/17 00:03:37;;;;;;;8.83;5.47;;;22.40;59.10;;;;;;349659;28;936;-58
2023/10/17 00:03:48;;;;;;;9.27;5.70;;;22.40;59.10;;;;;;349634;28;917;-58
2023/10/17 00:04:25;;;;;;;9.50;5.45;;;22.40;59.10;;;;;;349579;28;1011;-59
2023/10/17 00:04:38;;;;;;;9.58;4.86;;;22.40;59.00;;;;;;349506;28;1714;-58
2023/10/17 00:04:49;;;;;;;8.05;4.97;;;22.40;59.00;;;;;;349521;28;979;-57
2023/10/17 00:05:00;;;;;;;7.10;5.00;;;22.40;59.00;;;;;;349634;28;889;-59
2023/10/17 00:05:13;;;;;;;7.65;5.10;;;22.40;58.90;;;;;;349659;28;1046;-59
2023/10/17 00:05:25;;;;;;;10.18;5.30;;;22.40;58.90;;;;;;349665;28;1050;-59
2023/10/17 00:05:36;;;;;;;10.73;5.28;;;22.40;59.00;;;;;;349493;28;1201;-58
2023/10/17 00:05:48;;;;;;;11.23;5.00;;;22.40;59.00;;;;;;349614;28;996;-58
2023/10/17 00:05:59;;;;;;;8.95;5.05;;;22.40;59.10;;;;;;349654;28;992;-59
2023/10/17 00:06:12;;;;;;;9.65;5.22;;;22.30;59.20;;;;;;349593;28;1164;-58
2023/10/17 00:06:23;;;;;;;8.82;4.90;;;22.40;59.30;;;;;;349525;28;1007;-59
2023/10/17 00:06:34;;;;;;;8.43;4.65;;;22.30;59.30;;;;;;349617;28;876;-58
2023/10/17 00:06:45;;;;;;;9.03;4.83;;;22.40;59.40;;;;;;349632;28;1089;-58
2023/10/17 00:07:02;;;;;;;10.27;5.28;;;22.40;59.40;;;;;;349638;28;1004;-58
2023/10/17 00:07:13;;;;;;;10.13;4.97;;;22.30;59.40;;;;;;349564;28;1237;-59
2023/10/17 00:07:24;;;;;;;9.68;4.90;;;22.30;59.40;;;;;;349657;28;888;-59
2023/10/17 00:07:35;;;;;;;9.20;5.03;;;22.40;59.40;;;;;;349576;28;1462;-58
2023/10/17 00:07:48;;;;;;;9.17;5.20;;;22.30;59.30;;;;;;349637;28;947;-59
2023/10/17 00:07:59;;;;;;;8.82;4.75;;;22.30;59.30;;;;;;349539;28;989;-58
2023/10/17 00:08:10;;;;;;;8.13;4.65;;;22.30;59.30;;;;;;349620;28;1032;-58
2023/10/17 00:08:21;;;;;;;7.80;4.63;;;22.30;59.40;;;;;;349659;28;848;-58
2023/10/17 00:08:32;;;;;;;7.80;4.90;;;22.30;59.50;;;;;;349609;28;1177;-58
2023/10/17 00:08:50;;;;;;;8.50;4.97;;;22.30;59.60;;;;;;349535;28;1118;-57
2023/10/17 00:09:05;;;;;;;8.55;4.72;;;22.30;59.60;;;;;;349627;28;1036;-57
2023/10/17 00:09:24;;;;;;;8.63;4.80;;;22.30;59.60;;;;;;349472;28;1243;-59
2023/10/17 00:09:38;;;;;;;8.07;4.70;;;22.30;59.60;;;;;;349534;28;972;-58
2023/10/17 00:09:49;;;;;;;8.73;4.70;;;22.30;59.50;;;;;;349499;28;1031;-57
2023/10/17 00:10:00;;;;;;;8.15;4.50;;;22.30;59.40;;;;;;349435;28;1980;-58
2023/10/17 00:10:14;;;;;;;7.80;4.50;;;22.20;59.50;;;;;;349421;28;1068;-58
2023/10/17 00:10:30;;;;;;;8.25;4.72;;;22.30;59.40;;;;;;349487;28;1144;-58
2023/10/17 00:10:46;;;;;;;8.10;4.95;;;22.20;59.40;;;;;;349466;28;1820;-58
2023/10/17 00:10:57;;;;;;;8.10;5.00;;;22.20;59.40;;;;;;349467;28;1051;-58
2023/10/17 00:11:17;;;;;;;8.10;5.15;;;22.30;59.50;;;;;;349484;28;1925;-58
2023/10/17 00:11:33;;;;;;;9.15;5.30;;;22.20;59.50;;;;;;349459;28;1063;-60
2023/10/17 00:12:39;;;;;;;7.38;4.38;;;22.20;59.50;;;;;;349573;28;1031;-59
2023/10/17 00:12:53;;;;;;;7.03;4.43;;;22.20;59.40;;;;;;349576;28;1073;-59
2023/10/17 00:13:23;;;;;;;6.97;4.53;;;22.20;59.40;;;;;;349550;28;892;-59
2023/10/17 00:13:44;;;;;;;7.05;4.35;;;22.20;59.40;;;;;;349600;28;900;-57
2023/10/17 00:14:07;;;;;;;6.50;4.40;;;22.20;59.50;;;;;;349516;28;1118;-59
2023/10/17 00:14:18;;;;;;;7.10;4.40;;;22.20;59.50;;;;;;349572;28;1197;-59
2023/10/17 00:14:34;;;;;;;7.18;4.25;;;22.20;59.60;;;;;;349529;28;1538;-57
2023/10/17 00:14:49;;;;;;;7.43;4.40;;;22.20;59.60;;;;;;349662;28;1027;-58
2023/10/17 00:15:09;;;;;;;7.32;4.40;;;22.20;59.50;;;;;;349582;28;1809;-58
2023/10/17 00:15:35;;;;;;;8.05;4.40;;;22.20;59.50;;;;;;349533;28;1322;-58
2023/10/17 00:15:46;;;;;;;6.90;4.25;;;22.20;59.50;;;;;;349528;28;1110;-59
2023/10/17 00:15:58;;;;;;;7.28;4.20;;;22.20;59.60;;;;;;349642;28;928;-58
2023/10/17 00:16:11;;;;;;;7.50;4.38;;;22.20;59.60;;;;;;349472;28;1480;-58
2023/10/17 00:16:23;;;;;;;7.75;4.40;;;22.20;59.70;;;;;;349632;28;1020;-58
2023/10/17 00:16:34;;;;;;;6.88;4.25;;;22.20;59.70;;;;;;349599;28;999;-58
2023/10/17 00:16:44;;;;;;;7.63;4.20;;;22.20;59.70;;;;;;349585;28;1099;-57
2023/10/17 00:16:55;;;;;;;6.63;3.97;;;22.20;59.70;;;;;;349488;28;1902;-58
2023/10/17 00:17:06;;;;;;;7.65;4.00;;;22.20;59.70;;;;;;349642;28;983;-58
2023/10/17 00:17:17;;;;;;;7.50;4.13;;;22.20;59.60;;;;;;349655;28;1066;-58
2023/10/17 00:17:27;;;;;;;8.02;4.43;;;22.20;59.60;;;;;;349653;28;1013;-59
2023/10/17 00:17:39;;;;;;;7.40;4.27;;;22.20;59.80;;;;;;349619;28;1030;-58
2023/10/17 00:17:50;;;;;;;7.43;3.90;;;22.20;59.80;;;;;;349541;28;1023;-58
2023/10/17 00:18:20;;;;;;;7.40;3.85;;;22.20;59.70;;;;;;349640;28;856;-58
2023/10/17 00:18:31;;;;;;;10.23;6.03;;;22.20;59.60;;;;;;349598;28;964;-57
2023/10/17 00:18:41;;;;;;;9.90;5.78;;;22.20;59.60;;;;;;349520;28;1508;-57
2023/10/17 00:18:52;;;;;;;11.05;5.40;;;22.20;59.60;;;;;;349603;28;1015;-58
2023/10/17 00:19:10;;;;;;;9.60;4.65;;;22.20;59.60;;;;;;349577;28;1003;-59
2023/10/17 00:19:30;;;;;;;9.15;4.30;;;22.10;59.60;;;;;;349503;28;1176;-59
2023/10/17 00:19:41;;;;;;;8.25;4.15;;;22.20;59.90;;;;;;349595;28;1066;-59
2023/10/17 00:19:52;;;;;;;7.78;4.10;;;22.10;59.90;;;;;;349629;28;1038;-58
2023/10/17 00:20:16;;;;;;;8.27;4.00;;;22.20;59.90;;;;;;349536;28;1016;-58
2023/10/17 00:20:32;;;;;;;7.57;3.70;;;22.20;59.80;;;;;;349578;28;1071;-58
2023/10/17 00:20:43;;;;;;;7.70;3.65;;;22.20;59.80;;;;;;349622;28;987;-59
2023/10/17 00:21:02;;;;;;;7.10;3.60;;;22.20;59.90;;;;;;349642;28;1118;-58
2023/10/17 00:21:23;;;;;;;5.60;3.70;;;22.20;59.90;;;;;;349565;28;867;-58
2023/10/17 00:21:33;;;;;;;5.43;3.80;;;22.20;60.10;;;;;;349598;28;992;-57
2023/10/17 00:21:45;;;;;;;6.45;3.97;;;22.20;60.30;;;;;;349604;28;1055;-58
2023/10/17 00:21:56;;;;;;;7.07;3.97;;;22.20;60.40;;;;;;349599;28;953;-57
2023/10/17 00:22:07;;;;;;;7.10;4.10;;;22.10;60.50;;;;;;349617;28;1046;-59
2023/10/17 00:22:18;;;;;;;6.50;3.80;;;22.10;60.50;;;;;;349579;28;1107;-57
2023/10/17 00:22:29;;;;;;;6.75;4.00;;;22.20;60.40;;;;;;349462;28;1256;-58
2023/10/17 00:22:42;;;;;;;7.15;3.90;;;22.20;60.30;;;;;;349619;28;960;-58
2023/10/17 00:22:53;;;;;;;6.90;3.92;;;22.10;60.30;;;;;;349635;28;1035;-59
2023/10/17 00:23:07;;;;;;;6.93;3.83;;;22.20;60.30;;;;;;349500;28;1024;-59
2023/10/17 00:23:20;;;;;;;6.22;3.80;;;22.20;60.20;;;;;;349554;28;1448;-58
2023/10/17 00:23:32;;;;;;;6.38;3.78;;;22.10;60.30;;;;;;349625;28;1011;-57
2023/10/17 00:23:42;;;;;;;5.50;3.45;;;22.20;60.40;;;;;;349530;28;1039;-58
2023/10/17 00:23:53;;;;;;;5.97;3.70;;;22.10;60.50;;;;;;349651;28;1038;-58
2023/10/17 00:24:08;;;;;;;7.90;4.00;;;22.10;60.60;;;;;;349600;28;1042;-58
2023/10/17 00:24:19;;;;;;;8.52;4.18;;;22.10;60.60;;;;;;349522;28;1579;-58
2023/10/17 00:24:30;;;;;;;7.22;4.07;;;22.10;60.60;;;;;;349537;28;2437;-58
2023/10/17 00:24:45;;;;;;;7.07;3.70;;;22.10;60.70;;;;;;349619;28;1000;-58
2023/10/17 00:25:09;;;;;;;6.75;3.72;;;22.10;60.70;;;;;;349589;28;1043;-59
2023/10/17 00:25:20;;;;;;;9.32;4.35;;;22.10;60.70;;;;;;349594;28;2041;-59
2023/10/17 00:25:30;;;;;;;9.25;4.35;;;22.10;60.50;;;;;;349496;28;1284;-57
2023/10/17 00:25:45;;;;;;;8.38;4.30;;;22.10;60.50;;;;;;349582;28;1082;-59
2023/10/17 00:26:02;;;;;;;7.18;3.85;;;22.10;60.40;;;;;;349665;28;979;-58
2023/10/17 00:26:14;;;;;;;7.40;3.85;;;22.10;60.50;;;;;;349567;28;1189;-58
2023/10/17 00:26:25;;;;;;;6.78;3.92;;;22.10;60.80;;;;;;349628;28;910;-59
2023/10/17 00:26:39;;;;;;;6.60;4.00;;;22.10;60.90;;;;;;349634;28;1027;-59
2023/10/17 00:26:50;;;;;;;6.82;3.80;;;22.10;61.00;;;;;;349476;28;1126;-58
2023/10/17 00:27:02;;;;;;;7.53;3.70;;;22.10;61.00;;;;;;349586;28;966;-59
2023/10/17 00:27:14;;;;;;;8.43;3.78;;;22.10;60.90;;;;;;349651;28;888;-59
2023/10/17 00:27:24;;;;;;;8.10;3.78;;;22.00;61.00;;;;;;349502;28;1621;-59
2023/10/17 00:27:35;;;;;;;7.57;3.83;;;22.10;61.00;;;;;;349639;28;1016;-59
2023/10/17 00:27:46;;;;;;;6.80;3.85;;;22.10;60.90;;;;;;349658;28;935;-58
2023/10/17 00:27:58;;;;;;;7.40;3.90;;;22.10;60.90;;;;;;349593;28;887;-59
2023/10/17 00:28:13;;;;;;;7.45;3.78;;;22.10;61.10;;;;;;349608;28;888;-58
2023/10/17 00:28:24;;;;;;;6.63;3.75;;;22.10;61.10;;;;;;349611;28;852;-58
2023/10/17 00:28:36;;;;;;;6.97;3.90;;;22.00;61.10;;;;;;349554;28;1154;-57
2023/10/17 00:28:49;;;;;;;7.70;4.05;;;22.00;61.10;;;;;;349599;28;861;-58
2023/10/17 00:29:04;;;;;;;7.28;3.92;;;22.00;61.20;;;;;;349460;28;1419;-58
2023/10/17 00:29:15;;;;;;;6.18;3.90;;;22.00;61.30;;;;;;349663;28;923;-58
2023/10/17 00:29:26;;;;;;;5.60;3.72;;;22.00;61.10;;;;;;349524;28;979;-58
2023/10/17 00:29:37;;;;;;;5.95;3.80;;;22.00;61.00;;;;;;349639;28;1213;-58
2023/10/17 00:29:48;;;;;;;6.43;3.90;;;22.00;60.90;;;;;;349566;28;892;-59
2023/10/17 00:29:59;;;;;;;6.80;4.03;;;22.00;60.90;;;;;;349642;28;940;-58
2023/10/17 00:30:19;;;;;;;6.95;4.25;;;22.00;61.00;;;;;;349536;28;980;-57
2023/10/17 00:30:30;;;;;;;7.00;4.32;;;22.00;61.10;;;;;;349564;28;1364;-58
2023/10/17 00:30:41;;;;;;;7.18;4.00;;;22.00;61.20;;;;;;349539;28;982;-59
2023/10/17 00:30:54;;;;;;;7.53;4.00;;;22.00;61.10;;;;;;349530;28;1658;-58
2023/10/17 00:31:04;;;;;;;7.25;3.90;;;22.00;61.10;;;;;;349535;28;1110;-58
2023/10/17 00:31:16;;;;;;;7.10;3.83;;;22.00;61.20;;;;;;349628;28;1906;-58
2023/10/17 00:31:26;;;;;;;6.82;3.88;;;22.00;61.20;;;;;;349498;28;1012;-59
2023/10/17 00:31:37;;;;;;;7.23;3.90;;;22.00;61.20;;;;;;349647;28;923;-58
2023/10/17 00:31:48;;;;;;;7.15;3.90;;;22.00;61.30;;;;;;349507;28;1663;-59
2023/10/17 00:31:59;;;;;;;8.00;3.83;;;22.00;61.20;;;;;;349618;28;904;-58
2023/10/17 00:32:09;;;;;;;7.32;3.65;;;22.00;61.20;;;;;;349641;28;845;-58
2023/10/17 00:32:20;;;;;;;7.55;3.70;;;22.00;61.20;;;;;;349530;28;1008;-58
2023/10/17 00:32:31;;;;;;;6.70;3.50;;;22.00;61.20;;;;;;349630;28;1059;-58
2023/10/17 00:32:42;;;;;;;6.47;3.47;;;22.00;61.20;;;;;;349505;28;1317;-59
2023/10/17 00:32:53;;;;;;;5.88;3.35;;;22.00;61.10;;;;;;349583;28;984;-59
2023/10/17 00:33:09;;;;;;;6.40;3.60;;;21.90;61.00;;;;;;349615;28;999;-58
2023/10/17 00:33:20;;;;;;;7.57;3.78;;;22.00;61.10;;;;;;349561;28;1035;-57
2023/10/17 00:33:41;;;;;;;7.53;3.92;;;21.90;61.10;;;;;;349641;28;876;-58
2023/10/17 00:33:58;;;;;;;6.63;4.00;;;21.90;61.00;;;;;;349573;28;1035;-58
2023/10/17 00:34:27;;;;;;;7.32;3.92;;;21.90;61.10;;;;;;349544;28;1849;-59
2023/10/17 00:34:38;;;;;;;9.90;4.70;;;21.90;61.20;;;;;;349532;28;1098;-59
2023/10/17 00:34:48;;;;;;;7.93;4.40;;;21.90;61.50;;;;;;349612;28;1807;-59
2023/10/17 00:35:02;;;;;;;7.75;4.22;;;21.90;61.60;;;;;;349611;28;960;-57
2023/10/17 00:35:18;;;;;;;7.63;4.18;;;21.90;61.70;;;;;;349642;28;934;-59
2023/10/17 00:35:36;;;;;;;6.97;4.10;;;21.90;61.90;;;;;;349506;28;1038;-58
2023/10/17 00:35:48;;;;;;;6.95;4.25;;;21.90;62.00;;;;;;349574;28;853;-58
2023/10/17 00:36:03;;;;;;;8.48;4.28;;;21.90;62.10;;;;;;349628;28;903;-59
2023/10/17 00:36:16;;;;;;;8.65;4.32;;;21.90;62.00;;;;;;349627;28;1007;-59
2023/10/17 00:36:28;;;;;;;8.85;4.30;;;21.90;61.90;;;;;;349538;28;964;-59
2023/10/17 00:36:48;;;;;;;9.10;4.20;;;21.80;61.90;;;;;;349576;28;972;-58
2023/10/17 00:37:11;;;;;;;9.63;4.80;;;21.90;62.00;;;;;;349492;28;1955;-58
2023/10/17 00:37:23;;;;;;;7.65;4.40;;;21.90;62.20;;;;;;349501;28;998;-59
2023/10/17 00:37:37;;;;;;;7.00;4.32;;;21.80;62.60;;;;;;349584;28;1032;-59
2023/10/17 00:37:54;;;;;;;7.07;4.70;;;21.80;62.90;;;;;;349624;28;980;-57
2023/10/17 00:38:07;;;;;;;10.18;4.63;;;21.80;62.90;;;;;;349580;28;1134;-59
2023/10/17 00:38:18;;;;;;;10.02;4.57;;;21.80;62.40;;;;;;349503;28;1102;-57
2023/10/17 00:38:29;;;;;;;9.10;4.47;;;21.80;62.20;;;;;;349673;28;908;-57
2023/10/17 00:38:43;;;;;;;6.18;4.03;;;21.80;62.20;;;;;;349610;28;856;-57
2023/10/17 00:39:07;;;;;;;6.85;4.20;;;21.80;62.40;;;;;;349613;28;1082;-59
2023/10/17 00:39:38;;;;;;;9.55;4.70;;;21.70;62.80;;;;;;349581;28;917;-57
2023/10/17 00:39:49;;;;;;;10.60;4.97;;;21.80;63.00;;;;;;349529;28;999;-58
2023/10/17 00:40:13;;;;;;;10.43;5.20;;;21.70;63.50;;;;;;349617;28;1062;-58
2023/10/17 00:40:56;;;;;;;10.68;5.47;;;21.80;63.90;;;;;;349459;28;944;-58
2023/10/17 00:41:08;;;;;;;10.70;5.30;;;21.70;64.10;;;;;;349587;28;991;-57
2023/10/17 00:42:29;;;;;;;15.10;7.72;;;21.70;64.70;;;;;;347884;28;1465;-58
2023/10/17 00:42:41;;;;;;;14.38;7.10;;;21.70;64.70;;;;;;349480;28;1225;-58
2023/10/17 00:42:52;;;;;;;14.85;6.97;;;21.70;64.80;;;;;;349545;28;1978;-59
2023/10/17 00:43:11;;;;;;;15.05;6.80;;;21.70;64.80;;;;;;349549;28;907;-58
2023/10/17 00:43:28;;;;;;;13.10;6.13;;;21.70;65.00;;;;;;349599;28;999;-58
2023/10/17 00:43:38;;;;;;;13.45;5.75;;;21.70;65.00;;;;;;349551;28;966;-59
2023/10/17 00:43:49;;;;;;;14.37;5.73;;;21.70;65.00;;;;;;349600;28;1037;-59
2023/10/17 00:44:00;;;;;;;15.48;6.25;;;21.70;65.20;;;;;;349553;28;938;-59
2023/10/17 00:44:14;;;;;;;15.70;6.25;;;21.70;65.30;;;;;;349627;28;860;-58
2023/10/17 00:44:30;;;;;;;16.67;6.30;;;21.70;65.50;;;;;;349576;28;983;-58
2023/10/17 00:44:44;;;;;;;14.45;5.80;;;21.70;65.80;;;;;;349607;28;963;-58
2023/10/17 00:44:55;;;;;;;14.40;5.90;;;21.70;65.90;;;;;;349536;28;1070;-58
2023/10/17 00:45:08;;;;;;;15.48;6.05;;;21.70;66.00;;;;;;349571;28;1177;-59
2023/10/17 00:45:19;;;;;;;13.90;5.70;;;21.70;65.90;;;;;;349623;28;915;-58
2023/10/17 00:45:32;;;;;;;14.05;5.78;;;21.70;65.90;;;;;;349643;28;1018;-58
2023/10/17 00:45:46;;;;;;;12.65;5.80;;;21.60;66.00;;;;;;349513;28;1023;-58
2023/10/17 00:45:57;;;;;;;12.68;6.15;;;21.60;66.10;;;;;;349824;28;988;-59
2023/10/17 00:46:08;;;;;;;15.18;6.47;;;21.70;66.20;;;;;;349838;28;1138;-58
2023/10/17 00:46:19;;;;;;;17.05;6.65;;;21.60;66.30;;;;;;349829;28;1851;-58
2023/10/17 00:46:29;;;;;;;18.60;6.55;;;21.70;66.30;;;;;;349743;28;1313;-58
2023/10/17 00:46:41;;;;;;;17.83;6.65;;;21.60;66.30;;;;;;349868;28;1094;-59
2023/10/17 00:46:52;;;;;;;16.88;6.50;;;21.60;66.60;;;;;;349871;28;865;-58
2023/10/17 00:47:05;;;;;;;14.57;6.25;;;21.60;66.60;;;;;;349889;28;873;-58
2023/10/17 00:47:18;;;;;;;12.45;5.60;;;21.60;66.50;;;;;;349808;28;1125;-59
2023/10/17 00:47:29;;;;;;;14.43;5.78;;;21.60;66.40;;;;;;349893;28;879;-58
2023/10/17 00:47:42;;;;;;;14.65;5.82;;;21.60;66.50;;;;;;349841;28;1259;-58
2023/10/17 00:47:52;;;;;;;15.93;6.22;;;21.60;66.50;;;;;;349857;28;1891;-58
2023/10/17 00:48:08;;;;;;;15.23;6.13;;;21.60;66.60;;;;;;349820;28;940;-59
2023/10/17 00:48:22;;;;;;;15.68;5.88;;;21.60;66.40;;;;;;349847;28;1003;-58
2023/10/17 00:48:35;;;;;;;15.35;6.10;;;21.60;66.30;;;;;;349857;28;979;-58
2023/10/17 00:48:48;;;;;;;15.68;6.47;;;21.60;66.70;;;;;;349852;28;1007;-59
2023/10/17 00:48:59;;;;;;;16.50;6.50;;;21.60;66.90;;;;;;349730;28;1030;-59
2023/10/17 00:49:10;;;;;;;13.02;5.82;;;21.60;66.90;;;;;;349868;28;884;-59
2023/10/17 00:49:23;;;;;;;11.75;5.63;;;21.60;67.00;;;;;;349823;28;1143;-59
2023/10/17 00:49:45;;;;;;;11.57;5.38;;;21.60;66.90;;;;;;349913;28;991;-57
2023/10/17 00:49:59;;;;;;;12.75;5.35;;;21.60;66.80;;;;;;349778;28;1177;-58
2023/10/17 00:50:13;;;;;;;11.18;5.18;;;21.60;66.80;;;;;;349832;28;1086;-58
2023/10/17 00:50:23;;;;;;;9.80;5.00;;;21.50;66.60;;;;;;349799;28;1118;-58
2023/10/17 00:50:38;;;;;;;9.30;5.00;;;21.60;66.40;;;;;;349807;28;1618;-56
2023/10/17 00:50:57;;;;;;;8.88;4.63;;;21.60;66.20;;;;;;349784;28;1125;-59
2023/10/17 00:51:08;;;;;;;8.77;4.40;;;21.50;66.10;;;;;;349850;28;1098;-58
2023/10/17 00:51:21;;;;;;;10.25;4.78;;;21.50;66.30;;;;;;349803;28;1485;-57
2023/10/17 00:51:32;;;;;;;10.23;4.72;;;21.50;66.70;;;;;;349856;28;1103;-58
2023/10/17 00:51:43;;;;;;;11.45;4.72;;;21.50;66.70;;;;;;349860;28;917;-58
2023/10/17 00:51:55;;;;;;;11.93;4.78;;;21.50;66.80;;;;;;349870;28;1051;-58
2023/10/17 00:52:18;;;;;;;9.90;4.97;;;21.50;66.90;;;;;;349857;28;1056;-59
2023/10/17 00:52:32;;;;;;;8.65;4.75;;;21.50;66.90;;;;;;349869;28;888;-57
2023/10/17 00:52:44;;;;;;;10.25;4.85;;;21.50;67.00;;;;;;349733;28;1177;-59
2023/10/17 00:52:56;;;;;;;10.05;4.70;;;21.50;67.10;;;;;;349865;28;1073;-58
2023/10/17 00:53:07;;;;;;;9.65;4.75;;;21.50;67.00;;;;;;349830;28;956;-58
2023/10/17 00:53:20;;;;;;;9.75;4.80;;;21.50;66.90;;;;;;349909;28;868;-58
2023/10/17 00:53:30;;;;;;;9.75;4.72;;;21.50;66.80;;;;;;349776;28;2080;-58
2023/10/17 00:53:42;;;;;;;10.52;4.80;;;21.50;66.90;;;;;;349888;28;1039;-58
2023/10/17 00:53:58;;;;;;;10.00;5.18;;;21.50;67.10;;;;;;349905;28;853;-58
2023/10/17 00:54:11;;;;;;;9.43;5.15;;;21.50;67.20;;;;;;349762;28;1205;-58
2023/10/17 00:54:29;;;;;;;10.15;5.00;;;21.50;67.40;;;;;;349783;28;918;-57
2023/10/17 00:54:40;;;;;;;11.55;5.22;;;21.50;67.50;;;;;;349801;28;1075;-57
2023/10/17 00:54:53;;;;;;;11.13;5.40;;;21.50;67.70;;;;;;349797;28;1023;-59
2023/10/17 00:55:04;;;;;;;9.50;5.32;;;21.50;67.70;;;;;;349707;28;1205;-59
2023/10/17 00:55:15;;;;;;;10.43;5.15;;;21.40;67.70;;;;;;349824;28;964;-58
2023/10/17 00:55:26;;;;;;;11.10;5.05;;;21.50;67.50;;;;;;349944;28;840;-58
2023/10/17 00:55:38;;;;;;;11.02;5.00;;;21.40;67.40;;;;;;349761;28;1201;-58
2023/10/17 00:55:56;;;;;;;9.35;4.93;;;21.40;67.30;;;;;;349874;28;1042;-59
2023/10/17 00:56:07;;;;;;;8.63;5.25;;;21.50;67.40;;;;;;349854;28;898;-58
2023/10/17 00:56:20;;;;;;;7.90;5.07;;;21.40;67.30;;;;;;349781;28;1003;-58
2023/10/17 00:56:30;;;;;;;8.98;4.97;;;21.40;67.10;;;;;;349872;28;940;-58
2023/10/17 00:56:43;;;;;;;10.07;5.00;;;21.40;66.80;;;;;;349861;28;1058;-58
2023/10/17 00:57:00;;;;;;;9.75;4.93;;;21.40;66.70;;;;;;349706;28;1930;-58
2023/10/17 00:57:13;;;;;;;8.45;4.90;;;21.40;66.90;;;;;;349757;28;1619;-58
2023/10/17 00:57:26;;;;;;;8.98;4.90;;;21.40;67.40;;;;;;349850;28;1018;-58
2023/10/17 00:57:37;;;;;;;8.15;4.75;;;21.40;67.30;;;;;;349770;28;992;-59
2023/10/17 00:57:48;;;;;;;7.30;4.90;;;21.40;67.30;;;;;;349818;28;1131;-59
2023/10/17 00:57:59;;;;;;;8.63;5.10;;;21.40;67.20;;;;;;349856;28;911;-58
2023/10/17 00:58:10;;;;;;;9.27;4.88;;;21.40;67.00;;;;;;349748;28;1232;-59
2023/10/17 00:58:24;;;;;;;9.63;4.57;;;21.40;66.70;;;;;;349833;28;1114;-58
2023/10/17 00:58:35;;;;;;;8.93;4.30;;;21.40;66.70;;;;;;349880;28;891;-58
2023/10/17 00:58:46;;;;;;;9.05;4.47;;;21.40;66.60;;;;;;349808;28;1094;-58
2023/10/17 00:58:57;;;;;;;8.93;4.60;;;21.30;66.50;;;;;;349806;28;1019;-58
2023/10/17 00:59:08;;;;;;;8.88;4.50;;;21.40;66.40;;;;;;349831;28;999;-58
2023/10/17 00:59:24;;;;;;;8.63;4.33;;;21.40;66.30;;;;;;349845;28;1102;-57
2023/10/17 00:59:35;;;;;;;9.52;4.57;;;21.40;66.30;;;;;;349829;28;1086;-58
2023/10/17 00:59:53;;;;;;;8.25;4.78;;;21.40;66.50;;;;;;349732;28;1185;-58
2023/10/17 01:00:16;;;;;;;8.05;4.75;;;21.40;66.80;;;;;;349774;28;1031;-58
2023/10/17 01:00:36;;;;;;;7.78;4.20;;;21.30;66.90;;;;;;349699;28;1181;-58
2023/10/17 01:00:54;;;;;;;8.15;4.30;;;21.30;67.00;;;;;;349825;28;1043;-58
2023/10/17 01:01:20;;;;;;;9.05;4.85;;;21.40;67.00;;;;;;349836;28;1046;-58
2023/10/17 01:01:32;;;;;;;9.73;4.75;;;21.30;67.10;;;;;;349678;28;1696;-59
2023/10/17 01:01:42;;;;;;;8.52;4.65;;;21.40;67.10;;;;;;349855;28;928;-59
2023/10/17 01:01:55;;;;;;;8.18;4.78;;;21.40;67.30;;;;;;349791;28;1646;-58
2023/10/17 01:02:07;;;;;;;9.07;5.00;;;21.30;67.50;;;;;;349748;28;1014;-59
2023/10/17 01:02:23;;;;;;;9.02;4.82;;;21.30;67.60;;;;;;349857;28;900;-57
2023/10/17 01:02:44;;;;;;;8.75;4.57;;;21.40;67.50;;;;;;349822;28;1795;-59
2023/10/17 01:03:01;;;;;;;10.70;4.47;;;21.30;67.30;;;;;;349776;28;1046;-59
2023/10/17 01:03:13;;;;;;;8.40;4.40;;;21.40;67.30;;;;;;349812;28;1489;-59
2023/10/17 01:03:25;;;;;;;7.22;4.32;;;21.30;67.30;;;;;;349821;28;1395;-59
2023/10/17 01:03:43;;;;;;;6.32;4.38;;;21.30;67.30;;;;;;349695;28;1500;-58
2023/10/17 01:03:55;;;;;;;8.07;4.63;;;21.30;67.30;;;;;;349827;28;1082;-58
2023/10/17 01:04:05;;;;;;;9.90;4.82;;;21.30;67.50;;;;;;349824;28;1027;-58
2023/10/17 01:04:19;;;;;;;11.10;5.30;;;21.40;67.50;;;;;;349783;28;1007;-58
2023/10/17 01:04:30;;;;;;;8.77;5.10;;;21.30;67.40;;;;;;349830;28;979;-59
2023/10/17 01:04:44;;;;;;;7.53;5.00;;;21.30;67.40;;;;;;349840;28;1146;-59
2023/10/17 01:04:59;;;;;;;7.45;4.75;;;21.30;67.40;;;;;;349775;28;1019;-59
2023/10/17 01:05:11;;;;;;;9.07;4.93;;;21.30;67.30;;;;;;349799;28;1078;-59
2023/10/17 01:05:23;;;;;;;9.20;4.95;;;21.30;67.30;;;;;;349697;28;1307;-59
2023/10/17 01:05:57;;;;;;;9.32;4.93;;;21.30;67.40;;;;;;349834;28;1888;-59
2023/10/17 01:06:13;;;;;;;8.13;5.07;;;21.30;67.60;;;;;;349793;28;1073;-59
2023/10/17 01:06:41;;;;;;;9.63;5.00;;;21.30;67.80;;;;;;349775;28;1399;-57
2023/10/17 01:06:55;;;;;;;9.60;5.28;;;21.30;67.80;;;;;;349793;28;1420;-58
2023/10/17 01:07:07;;;;;;;8.73;5.25;;;21.30;67.70;;;;;;349711;28;1106;-58
2023/10/17 01:07:25;;;;;;;9.30;5.07;;;21.30;67.90;;;;;;349886;28;915;-59
2023/10/17 01:07:39;;;;;;;9.02;4.72;;;21.30;68.00;;;;;;349773;28;1003;-58
2023/10/17 01:07:50;;;;;;;8.27;4.43;;;21.30;68.00;;;;;;349822;28;1938;-58
2023/10/17 01:08:01;;;;;;;8.65;4.55;;;21.30;67.90;;;;;;349874;28;837;-59
2023/10/17 01:08:12;;;;;;;8.73;4.67;;;21.30;67.80;;;;;;349740;28;832;-58
2023/10/17 01:08:39;;;;;;;9.70;4.93;;;21.30;67.60;;;;;;349874;28;1011;-58
2023/10/17 01:08:50;;;;;;;10.57;5.50;;;21.30;67.70;;;;;;349712;28;1054;-58
2023/10/17 01:09:08;;;;;;;9.23;5.35;;;21.30;67.80;;;;;;349840;28;923;-59
2023/10/17 01:09:19;;;;;;;10.65;5.40;;;21.30;67.90;;;;;;349846;28;1011;-58
2023/10/17 01:09:34;;;;;;;10.20;5.30;;;21.30;68.00;;;;;;349798;28;896;-58
2023/10/17 01:09:47;;;;;;;9.32;5.15;;;21.30;68.10;;;;;;349864;28;864;-57
2023/10/17 01:10:17;;;;;;;10.05;4.97;;;21.30;68.10;;;;;;349823;28;1082;-59
2023/10/17 01:10:28;;;;;;;9.13;4.72;;;21.30;67.80;;;;;;349780;28;1118;-57
2023/10/17 01:10:40;;;;;;;7.18;4.50;;;21.30;67.30;;;;;;349825;28;813;-58
2023/10/17 01:10:51;;;;;;;8.10;4.63;;;21.30;67.20;;;;;;349709;28;1194;-59
2023/10/17 01:11:08;;;;;;;10.13;4.82;;;21.30;67.20;;;;;;349886;28;988;-58
2023/10/17 01:11:29;;;;;;;10.35;5.18;;;21.30;67.20;;;;;;349827;28;1015;-59
2023/10/17 01:11:40;;;;;;;8.10;4.93;;;21.30;67.50;;;;;;349760;28;1096;-59
2023/10/17 01:11:57;;;;;;;7.00;4.65;;;21.30;67.60;;;;;;349855;28;857;-58
2023/10/17 01:12:11;;;;;;;9.88;5.00;;;21.30;67.70;;;;;;349756;28;890;-59
2023/10/17 01:12:27;;;;;;;11.27;5.15;;;21.30;67.80;;;;;;349792;28;1213;-58
2023/10/17 01:12:54;;;;;;;9.82;5.00;;;21.30;67.70;;;;;;349801;28;1114;-59
2023/10/17 01:13:05;;;;;;;9.30;4.93;;;21.30;67.70;;;;;;349794;28;1070;-59
2023/10/17 01:13:15;;;;;;;8.23;5.00;;;21.30;67.70;;;;;;349845;28;1110;-58
2023/10/17 01:13:27;;;;;;;7.80;4.88;;;21.20;67.60;;;;;;349786;28;1014;-57
2023/10/17 01:13:37;;;;;;;7.07;4.80;;;21.20;67.70;;;;;;349820;28;1046;-57
2023/10/17 01:13:52;;;;;;;7.70;4.88;;;21.20;67.60;;;;;;349766;28;1038;-59
2023/10/17 01:14:04;;;;;;;8.27;5.00;;;21.20;67.70;;;;;;349769;28;1066;-59
2023/10/17 01:14:18;;;;;;;8.50;5.07;;;21.20;67.80;;;;;;349808;28;1088;-59
2023/10/17 01:14:32;;;;;;;8.30;5.14;;;21.20;67.90;;;;;;349778;28;1015;-58
2023/10/17 01:14:43;;;;;;;7.97;4.97;;;21.20;67.90;;;;;;349808;28;1139;-58
2023/10/17 01:14:55;;;;;;;7.90;4.43;;;21.20;67.80;;;;;;349827;28;1039;-59
2023/10/17 01:15:06;;;;;;;9.23;4.63;;;21.20;67.90;;;;;;349798;28;1009;-59
2023/10/17 01:15:27;;;;;;;8.15;4.60;;;21.20;67.90;;;;;;349802;28;1456;-58
2023/10/17 01:15:38;;;;;;;8.63;5.38;;;21.20;68.20;;;;;;349792;28;1066;-59
2023/10/17 01:15:52;;;;;;;10.18;5.55;;;21.20;68.30;;;;;;349759;28;1679;-58
2023/10/17 01:16:07;;;;;;;9.98;5.20;;;21.20;68.50;;;;;;349798;28;898;-59
2023/10/17 01:16:22;;;;;;;10.10;4.97;;;21.20;68.70;;;;;;349839;28;1007;-58
2023/10/17 01:16:35;;;;;;;8.77;4.90;;;21.20;68.70;;;;;;349783;28;1235;-58
2023/10/17 01:16:46;;;;;;;8.18;4.72;;;21.20;68.70;;;;;;349792;28;1232;-59
2023/10/17 01:16:57;;;;;;;9.20;4.87;;;21.20;68.60;;;;;;349721;28;1969;-59